Mesa Verde National Park, CO

6:55 AM MDT on August 27, 2014 (GMT -0600)
Kelly Place B&B, McElmo Canyon | Change Station
CLOSE
Current Station
Personal Weather Station
Location: Cortez, CO
Elevation: 5522 ft
Nearby Weather Stations
Active Advisory: Special Statement

Elev 5522 ft 37.34 °N, 108.79 °W | Updated 5 minutes ago

Overcast
Overcast
53.4 °F
Feels Like 53.4 °F
N
0.0
Wind Variable Wind from East
Gusts 6.0 mph

Today
High -- | Low -- °F
--% Chance of Precip.
Yesterday
High -- | Low -- °F
Precip. -- in
6:41 AM 7:50 PM
Waxing Crescent, 3% visible
Pressure 30.33 in
Visibility 10.0 miles
Clouds Overcast 700 ft
Dew Point 50 °F
Humidity 87%
Rainfall 0.24 in
Snow Depth Not available.
UV 0 out of 12
Pollen 5.50 out of 12
Air Quality Not available.
Flu Activity Not available.
SPECI KCEZ 271221Z AUTO 00000KT 10SM OVC007 11/11 A3033 RMK AO2 CIG 004V010 T01110111 $

More Conditions Fewer Conditions

Pressure 30.33 in
Visibility 10.0 miles
Clouds Overcast 700 ft
Dew Point 50 °F
Humidity 87%
Rainfall 0.24 in
Snow Depth Not available.
UV 0 out of 12
Pollen 5.50 out of 12
Air Quality Not available.
Flu Activity Not available.
SPECI KCEZ 271221Z AUTO 00000KT 10SM OVC007 11/11 A3033 RMK AO2 CIG 004V010 T01110111 $

More Conditions Fewer Conditions

10-Day Weather Forecast

Almanac

Astronomy

Aug. 27, 2014 Rise Set
Actual Time 6:41 AM MDT 7:50 PM MDT
Civil Twilight 6:14 AM MDT 8:17 PM MDT
Nautical Twilight 5:42 AM MDT 8:49 PM MDT
Astronomical Twilight 5:08 AM MDT 9:23 PM MDT
Moon 8:36 AM MDT 8:48 PM MDT
Length of Visible Light 14h 03m
Length of Day
13h 09m
Tomorrow will be 2m 16s shorter.
Waxing Crescent, 3% of the Moon is Illuminated
Today
Waxing Crescent
Sep 2
First Quarter
Sep 8
Full
Sep 15
Last Quarter
Sep 24
New

Today's Extremes

State Highs State Lows

Community

WunderPhotos

Upload Photos

1,747,676 photos uploaded!

Nearby

Snow Depth

Station Depth Elevation
Sharkstooth 1 in 10720 ft
Columbus Basin 0 in 10785 ft
Scotch Creek 0 in 9100 ft
Lone Cone 5 in 9600 ft
El Diente Peak 1 in 10200 ft

Earthquake Activity

City Distance Mag. Time & Date
No recent earthquake activity has been reported nearby.
Minimum magnitude displayed is 2.5.

Coastal Water Temperatures

Place Temperature
No Stations Reporting

Nearby Weather Stations